Time;durP1;ratioP1;P1;durP2;ratioP2;P2;SDS_P1;SDS_P2;PMS_P1;PMS_P2;Temp;Humidity;BMP_temperature;BMP_pressure;BME280_temperature;BME280_humidity;BME280_pressure;Samples;Min_cycle;Max_cycle;Signal;HPM_P1;HPM_P2
2024/01/26 00:00:59;;;;;;;;;;;;;;;-144.99;100.00;67352.69;5052587;28;19920;-80
2024/01/26 00:03:24;;;;;;;;;;;;;;;-144.99;100.00;67352.69;5052526;28;19969;-80
2024/01/26 00:05:50;;;;;;;;;;;;;;;-144.99;100.00;67352.69;5054073;28;20380;-81
2024/01/26 00:08:15;;;;;;;;;;;;;;;-144.99;100.00;67352.69;5054663;28;20002;-80
2024/01/26 00:10:40;;;;;;;;;;;;;;;-144.99;100.00;67352.69;5054396;28;20295;-80
2024/01/26 00:13:05;;;;;;;;;;;;;;;-144.99;100.00;67352.69;5052648;28;19939;-80
2024/01/26 00:15:31;;;;;;;;;;;;;;;-144.99;100.00;67352.69;5053589;28;19971;-80
2024/01/26 00:17:56;;;;;;;;;;;;;;;-144.99;100.00;67352.69;5054297;28;19960;-80
2024/01/26 00:20:21;;;;;;;;;;;;;;;-144.99;100.00;67352.69;5052645;28;19959;-80
2024/01/26 00:22:47;;;;;;;;;;;;;;;-144.99;100.00;67352.69;5054531;28;19912;-80
2024/01/26 00:25:12;;;;;;;;;;;;;;;-144.99;100.00;67352.69;5057302;28;20477;-81
2024/01/26 00:27:37;;;;;;;;;;;;;;;-144.99;100.00;67352.69;5057628;28;20015;-80
2024/01/26 00:30:03;;;;;;;;;;;;;;;-144.99;100.00;67352.69;5057999;28;19913;-80
2024/01/26 00:32:28;;;;;;;;;;;;;;;-144.99;100.00;67352.69;5056671;28;20315;-80
2024/01/26 00:34:53;;;;;;;;;;;;;;;-144.99;100.00;67352.69;5057271;28;19943;-80
2024/01/26 00:37:19;;;;;;;;;;;;;;;-144.99;100.00;67352.69;5057713;28;19913;-80
2024/01/26 00:39:44;;;;;;;;;;;;;;;-144.99;100.00;67352.69;5056373;28;20000;-81
2024/01/26 00:42:09;;;;;;;;;;;;;;;-144.99;100.00;67352.69;5057529;28;19913;-80
2024/01/26 00:44:36;;;;;;;;;;;;;;;-144.99;100.00;67352.69;5056944;28;19917;-80
2024/01/26 00:47:03;;;;;;;;;;;;;;;-144.99;100.00;67352.69;5057442;28;19940;-80
2024/01/26 00:49:29;;;;;;;;;;;;;;;-144.99;100.00;67352.69;5057725;28;19913;-80
2024/01/26 00:51:55;;;;;;;;;;;;;;;-144.99;100.00;67352.69;5057211;28;20299;-79
2024/01/26 00:54:20;;;;;;;;;;;;;;;-144.99;100.00;67352.69;5056996;28;20395;-80
2024/01/26 00:56:46;;;;;;;;;;;;;;;-144.99;100.00;67352.69;5056284;28;19920;-80
2024/01/26 00:59:11;;;;;;;;;;;;;;;-144.99;100.00;67352.69;5057257;28;19912;-80
2024/01/26 01:01:36;;;;;;;;;;;;;;;-144.99;100.00;67352.69;5056125;28;20368;-80
2024/01/26 01:04:02;;;;;;;;;;;;;;;-144.99;100.00;67352.69;5054692;28;19919;-79
2024/01/26 01:06:27;;;;;;;;;;;;;;;-144.99;100.00;67352.69;5054932;28;19923;-80
2024/01/26 01:08:52;;;;;;;;;;;;;;;-144.99;100.00;67352.69;5055240;28;19935;-80
2024/01/26 01:11:17;;;;;;;;;;;;;;;-144.99;100.00;67352.69;5055586;28;20379;-80
2024/01/26 01:13:43;;;;;;;;;;;;;;;-144.99;100.00;67352.69;5057851;28;19916;-80
2024/01/26 01:16:12;;;;;;;;;;;;;;;-144.99;100.00;67352.69;5059141;28;19912;-80
2024/01/26 01:18:37;;;;;;;;;;;;;;;-144.99;100.00;67352.69;5059094;28;19912;-80
2024/01/26 01:21:04;;;;;;;;;;;;;;;-144.99;100.00;67352.69;5058235;28;20437;-81
2024/01/26 01:23:30;;;;;;;;;;;;;;;-144.99;100.00;67352.69;5057985;28;19912;-80
2024/01/26 01:25:55;;;;;;;;;;;;;;;-144.99;100.00;67352.69;5060140;28;19974;-81
2024/01/26 01:28:20;;;;;;;;;;;;;;;-144.99;100.00;67352.69;5059068;28;19967;-81
2024/01/26 01:30:45;;;;;;;;;;;;;;;-144.99;100.00;67352.69;5058392;28;19935;-80
2024/01/26 01:33:10;;;;;;;;;;;;;;;-144.99;100.00;67352.69;5057795;28;19951;-80
2024/01/26 01:35:36;;;;;;;;;;;;;;;-144.99;100.00;67352.69;5055886;28;20387;-80
2024/01/26 01:38:01;;;;;;;;;;;;;;;-144.99;100.00;67352.69;5060015;28;19920;-81
2024/01/26 01:40:26;;;;;;;;;;;;;;;-144.99;100.00;67352.69;5059464;28;19919;-79
2024/01/26 01:42:51;;;;;;;;;;;;;;;-144.99;100.00;67352.69;5058367;28;20272;-80
2024/01/26 01:45:17;;;;;;;;;;;;;;;-144.99;100.00;67352.69;5054972;28;19924;-80
2024/01/26 01:47:42;;;;;;;;;;;;;;;-144.99;100.00;67352.69;5057047;28;19919;-80
2024/01/26 01:50:08;;;;;;;;;;;;;;;-144.99;100.00;67352.69;5057044;28;19912;-81
2024/01/26 01:52:34;;;;;;;;;;;;;;;-144.99;100.00;67352.69;5056882;28;19913;-80
2024/01/26 01:55:00;;;;;;;;;;;;;;;-144.99;100.00;67352.69;5058270;28;19917;-81
2024/01/26 01:57:26;;;;;;;;;;;;;;;-144.99;100.00;67352.69;5054956;28;19970;-80
2024/01/26 01:59:52;;;;;;;;;;;;;;;-144.99;100.00;67352.69;5059695;28;19924;-81
2024/01/26 02:02:19;;;;;;;;;;;;;;;-144.99;100.00;67352.69;5058071;28;20295;-80
2024/01/26 02:04:44;;;;;;;;;;;;;;;-144.99;100.00;67352.69;5053111;28;20101;-80
2024/01/26 02:07:10;;;;;;;;;;;;;;;-144.99;100.00;67352.69;5052655;28;19992;-80
2024/01/26 02:09:35;;;;;;;;;;;;;;;-144.99;100.00;67352.69;5054093;28;19991;-80
2024/01/26 02:12:01;;;;;;;;;;;;;;;-144.99;100.00;67352.69;5053708;28;19923;-80
2024/01/26 02:14:26;;;;;;;;;;;;;;;-144.99;100.00;67352.69;5052251;28;20311;-79
2024/01/26 02:16:55;;;;;;;;;;;;;;;-144.99;100.00;67352.69;5052643;28;20379;-80
2024/01/26 02:19:21;;;;;;;;;;;;;;;-144.99;100.00;67352.69;5052248;28;19919;-79
2024/01/26 02:21:46;;;;;;;;;;;;;;;-144.99;100.00;67352.69;5051939;28;19937;-80
2024/01/26 02:24:13;;;;;;;;;;;;;;;-144.99;100.00;67352.69;5051436;28;20448;-79
2024/01/26 02:26:38;;;;;;;;;;;;;;;-144.99;100.00;67352.69;5053217;28;19967;-79
2024/01/26 02:29:03;;;;;;;;;;;;;;;-144.99;100.00;67352.69;5053064;28;19921;-79
2024/01/26 02:31:28;;;;;;;;;;;;;;;-144.99;100.00;67352.69;5052299;28;19947;-80
2024/01/26 02:33:53;;;;;;;;;;;;;;;-144.99;100.00;67352.69;5051076;28;19927;-80
2024/01/26 02:36:19;;;;;;;;;;;;;;;-144.99;100.00;67352.69;5052043;28;19917;-80
2024/01/26 02:38:44;;;;;;;;;;;;;;;-144.99;100.00;67352.69;5052066;28;19919;-80
2024/01/26 02:41:09;;;;;;;;;;;;;;;-144.99;100.00;67352.69;5052657;28;19917;-80
2024/01/26 02:43:34;;;;;;;;;;;;;;;-144.99;100.00;67352.69;5051724;28;19917;-79
2024/01/26 02:45:59;;;;;;;;;;;;;;;-144.99;100.00;67352.69;5052362;28;20035;-80
2024/01/26 02:48:25;;;;;;;;;;;;;;;-144.99;100.00;67352.69;5053260;28;19917;-80
2024/01/26 02:50:50;;;;;;;;;;;;;;;-144.99;100.00;67352.69;5052762;28;19952;-80
2024/01/26 02:53:15;;;;;;;;;;;;;;;-144.99;100.00;67352.69;5051922;28;20440;-80
2024/01/26 02:55:40;;;;;;;;;;;;;;;-144.99;100.00;67352.69;5051757;28;19916;-79
2024/01/26 02:58:06;;;;;;;;;;;;;;;-144.99;100.00;67352.69;5051729;28;20299;-79
2024/01/26 03:00:31;;;;;;;;;;;;;;;-144.99;100.00;67352.69;5051411;28;19913;-78
2024/01/26 03:02:56;;;;;;;;;;;;;;;-144.99;100.00;67352.69;5052567;28;19913;-79
2024/01/26 03:05:21;;;;;;;;;;;;;;;-144.99;100.00;67352.69;5051554;28;19917;-80
2024/01/26 03:07:46;;;;;;;;;;;;;;;-144.99;100.00;67352.69;5052869;28;20283;-80
2024/01/26 03:10:12;;;;;;;;;;;;;;;-144.99;100.00;67352.69;5051760;28;19959;-79
2024/01/26 03:12:37;;;;;;;;;;;;;;;-144.99;100.00;67352.69;5049354;28;19916;-79
2024/01/26 03:15:02;;;;;;;;;;;;;;;-144.99;100.00;67352.69;5051522;28;20339;-79
2024/01/26 03:17:27;;;;;;;;;;;;;;;-144.99;100.00;67352.69;5050932;28;19913;-80
2024/01/26 03:19:53;;;;;;;;;;;;;;;-144.99;100.00;67352.69;5050588;28;19917;-79
2024/01/26 03:22:18;;;;;;;;;;;;;;;-144.99;100.00;67352.69;5052168;28;19920;-80
2024/01/26 03:24:44;;;;;;;;;;;;;;;-144.99;100.00;67352.69;5051235;28;19913;-80
2024/01/26 03:27:09;;;;;;;;;;;;;;;-144.99;100.00;67352.69;5050837;28;19924;-80
2024/01/26 03:29:34;;;;;;;;;;;;;;;-144.99;100.00;67352.69;5052128;28;19920;-79
2024/01/26 03:32:00;;;;;;;;;;;;;;;-144.99;100.00;67352.69;5050739;28;20493;-79
2024/01/26 03:34:25;;;;;;;;;;;;;;;-144.99;100.00;67352.69;5051523;28;19917;-80
2024/01/26 03:36:50;;;;;;;;;;;;;;;-144.99;100.00;67352.69;5050937;28;19964;-80
2024/01/26 03:39:15;;;;;;;;;;;;;;;-144.99;100.00;67352.69;5050633;28;20011;-80
2024/01/26 03:41:41;;;;;;;;;;;;;;;-144.99;100.00;67352.69;5052569;28;19920;-80
2024/01/26 03:44:06;;;;;;;;;;;;;;;-144.99;100.00;67352.69;5052053;28;19936;-80
2024/01/26 03:46:31;;;;;;;;;;;;;;;-144.99;100.00;67352.69;5051549;28;19917;-80
2024/01/26 03:48:56;;;;;;;;;;;;;;;-144.99;100.00;67352.69;5052689;28;19913;-80
2024/01/26 03:51:21;;;;;;;;;;;;;;;-144.99;100.00;67352.69;5052727;28;19958;-80
2024/01/26 03:53:47;;;;;;;;;;;;;;;-144.99;100.00;67352.69;5051855;28;19913;-80
2024/01/26 03:56:12;;;;;;;;;;;;;;;-144.99;100.00;67352.69;5052276;28;20309;-79
2024/01/26 03:58:37;;;;;;;;;;;;;;;-144.99;100.00;67352.69;5056210;28;19917;-79
2024/01/26 04:01:02;;;;;;;;;;;;;;;-144.99;100.00;67352.69;5056656;28;19966;-80
2024/01/26 04:03:28;;;;;;;;;;;;;;;-144.99;100.00;67352.69;5056509;28;19919;-80
2024/01/26 04:05:53;;;;;;;;;;;;;;;-144.99;100.00;67352.69;5056692;28;19917;-80
2024/01/26 04:08:18;;;;;;;;;;;;;;;-144.99;100.00;67352.69;5057040;28;19913;-80
2024/01/26 04:10:43;;;;;;;;;;;;;;;-144.99;100.00;67352.69;5055212;28;19920;-79
2024/01/26 04:13:08;;;;;;;;;;;;;;;-144.99;100.00;67352.69;5056913;28;19978;-80
2024/01/26 04:15:34;;;;;;;;;;;;;;;-144.99;100.00;67352.69;5055542;28;20398;-80
2024/01/26 04:17:59;;;;;;;;;;;;;;;-144.99;100.00;67352.69;5056246;28;19913;-80
2024/01/26 04:20:24;;;;;;;;;;;;;;;-144.99;100.00;67352.69;5055148;28;19948;-80
2024/01/26 04:22:49;;;;;;;;;;;;;;;-144.99;100.00;67352.69;5056681;28;19912;-80
2024/01/26 04:25:15;;;;;;;;;;;;;;;-144.99;100.00;67352.69;5055751;28;20428;-79
2024/01/26 04:27:40;;;;;;;;;;;;;;;-144.99;100.00;67352.69;5055954;28;19919;-79
2024/01/26 04:30:05;;;;;;;;;;;;;;;-144.99;100.00;67352.69;5056101;28;20058;-79
2024/01/26 04:32:31;;;;;;;;;;;;;;;-144.99;100.00;67352.69;5055888;28;20023;-79
2024/01/26 04:34:56;;;;;;;;;;;;;;;-144.99;100.00;67352.69;5055829;28;20295;-80
2024/01/26 04:37:21;;;;;;;;;;;;;;;-144.99;100.00;67352.69;5055726;28;20371;-80
2024/01/26 04:39:47;;;;;;;;;;;;;;;-144.99;100.00;67352.69;5056466;28;20303;-80
2024/01/26 04:42:12;;;;;;;;;;;;;;;-144.99;100.00;67352.69;5056453;28;19913;-81
2024/01/26 04:44:37;;;;;;;;;;;;;;;-144.99;100.00;67352.69;5059012;28;20383;-81
2024/01/26 04:47:03;;;;;;;;;;;;;;;-144.99;100.00;67352.69;5060986;28;20398;-81
2024/01/26 04:49:28;;;;;;;;;;;;;;;-144.99;100.00;67352.69;5058874;28;19913;-81
2024/01/26 04:51:53;;;;;;;;;;;;;;;-144.99;100.00;67352.69;5060498;28;19920;-81
2024/01/26 04:54:18;;;;;;;;;;;;;;;-144.99;100.00;67352.69;5058815;28;19913;-81
2024/01/26 04:56:43;;;;;;;;;;;;;;;-144.99;100.00;67352.69;5058688;28;19913;-78
2024/01/26 04:59:09;;;;;;;;;;;;;;;-144.99;100.00;67352.69;5055172;28;20038;-80
2024/01/26 05:01:34;;;;;;;;;;;;;;;-144.99;100.00;67352.69;5055289;28;19913;-81
2024/01/26 05:03:59;;;;;;;;;;;;;;;-144.99;100.00;67352.69;5053448;28;19924;-80
2024/01/26 05:06:24;;;;;;;;;;;;;;;-144.99;100.00;67352.69;5054670;28;20498;-80
2024/01/26 05:08:49;;;;;;;;;;;;;;;-144.99;100.00;67352.69;5053667;28;19919;-79
2024/01/26 05:11:16;;;;;;;;;;;;;;;-144.99;100.00;67352.69;5053888;28;19916;-80
2024/01/26 05:13:42;;;;;;;;;;;;;;;-144.99;100.00;67352.69;5054730;28;19913;-80
2024/01/26 05:16:07;;;;;;;;;;;;;;;-144.99;100.00;67352.69;5055482;28;20410;-79
2024/01/26 05:18:32;;;;;;;;;;;;;;;-144.99;100.00;67352.69;5054408;28;19920;-80
2024/01/26 05:20:57;;;;;;;;;;;;;;;-144.99;100.00;67352.69;5053431;28;19959;-79
2024/01/26 05:23:22;;;;;;;;;;;;;;;-144.99;100.00;67352.69;5054260;28;19975;-80
2024/01/26 05:25:48;;;;;;;;;;;;;;;-144.99;100.00;67352.69;5052872;28;20291;-80
2024/01/26 05:28:13;;;;;;;;;;;;;;;-144.99;100.00;67352.69;5053930;28;20306;-80
2024/01/26 05:30:39;;;;;;;;;;;;;;;-144.99;100.00;67352.69;5054746;28;20007;-80
2024/01/26 05:33:05;;;;;;;;;;;;;;;-144.99;100.00;67352.69;5053736;28;19978;-80
2024/01/26 05:35:30;;;;;;;;;;;;;;;-144.99;100.00;67352.69;5053794;28;20367;-79
2024/01/26 05:37:55;;;;;;;;;;;;;;;-144.99;100.00;67352.69;5055021;28;19917;-79
2024/01/26 05:40:21;;;;;;;;;;;;;;;-144.99;100.00;67352.69;5053638;28;19913;-80
2024/01/26 05:42:46;;;;;;;;;;;;;;;-144.99;100.00;67352.69;5054959;28;19912;-80
2024/01/26 05:45:13;;;;;;;;;;;;;;;-144.99;100.00;67352.69;5052553;28;19912;-80
2024/01/26 05:47:38;;;;;;;;;;;;;;;-144.99;100.00;67352.69;5054608;28;20299;-79
2024/01/26 05:50:03;;;;;;;;;;;;;;;-144.99;100.00;67352.69;5054573;28;19913;-80
2024/01/26 05:52:29;;;;;;;;;;;;;;;-144.99;100.00;67352.69;5054677;28;19913;-80
2024/01/26 05:54:54;;;;;;;;;;;;;;;-144.99;100.00;67352.69;5054219;28;19913;-80
2024/01/26 05:57:19;;;;;;;;;;;;;;;-144.99;100.00;67352.69;5053725;28;19913;-80
2024/01/26 05:59:44;;;;;;;;;;;;;;;-144.99;100.00;67352.69;5054600;28;19913;-79
2024/01/26 06:02:09;;;;;;;;;;;;;;;-144.99;100.00;67352.69;5053075;28;19913;-80
2024/01/26 06:04:34;;;;;;;;;;;;;;;-144.99;100.00;67352.69;5052327;28;19943;-80
2024/01/26 06:07:00;;;;;;;;;;;;;;;-144.99;100.00;67352.69;5055289;28;19963;-80
2024/01/26 06:09:25;;;;;;;;;;;;;;;-144.99;100.00;67352.69;5055273;28;20007;-81
2024/01/26 06:11:50;;;;;;;;;;;;;;;-144.99;100.00;67352.69;5052970;28;20003;-80
2024/01/26 06:14:16;;;;;;;;;;;;;;;-144.99;100.00;67352.69;5054237;28;20293;-80
2024/01/26 06:16:41;;;;;;;;;;;;;;;-144.99;100.00;67352.69;5054490;28;20350;-80
2024/01/26 06:19:06;;;;;;;;;;;;;;;-144.99;100.00;67352.69;5052615;28;19913;-80
2024/01/26 06:21:31;;;;;;;;;;;;;;;-144.99;100.00;67352.69;5053655;28;19916;-80
2024/01/26 06:23:57;;;;;;;;;;;;;;;-144.99;100.00;67352.69;5053804;28;20401;-80
2024/01/26 06:26:23;;;;;;;;;;;;;;;-144.99;100.00;67352.69;5054133;28;19917;-80
2024/01/26 06:28:48;;;;;;;;;;;;;;;-144.99;100.00;67352.69;5053156;28;20359;-80
2024/01/26 06:31:13;;;;;;;;;;;;;;;-144.99;100.00;67352.69;5052913;28;19919;-80
2024/01/26 06:33:39;;;;;;;;;;;;;;;-144.99;100.00;67352.69;5052479;28;19913;-80
2024/01/26 06:36:04;;;;;;;;;;;;;;;-144.99;100.00;67352.69;5054260;28;19939;-80
2024/01/26 06:38:29;;;;;;;;;;;;;;;-144.99;100.00;67352.69;5053069;28;19913;-80
2024/01/26 06:40:55;;;;;;;;;;;;;;;-144.99;100.00;67352.69;5052904;28;20380;-80
2024/01/26 06:43:20;;;;;;;;;;;;;;;-144.99;100.00;67352.69;5054208;28;20000;-80
2024/01/26 06:45:45;;;;;;;;;;;;;;;-144.99;100.00;67352.69;5051672;28;19944;-80
2024/01/26 06:48:11;;;;;;;;;;;;;;;-144.99;100.00;67352.69;5054931;28;19920;-79
2024/01/26 06:50:38;;;;;;;;;;;;;;;-144.99;100.00;67352.69;5052293;28;19923;-81
2024/01/26 06:53:03;;;;;;;;;;;;;;;-144.99;100.00;67352.69;5053991;28;19912;-80
2024/01/26 06:55:28;;;;;;;;;;;;;;;-144.99;100.00;67352.69;5053066;28;20379;-80
2024/01/26 06:57:53;;;;;;;;;;;;;;;-144.99;100.00;67352.69;5053528;28;20508;-80
2024/01/26 07:00:19;;;;;;;;;;;;;;;-144.99;100.00;67352.69;5052082;28;20058;-80
2024/01/26 07:02:44;;;;;;;;;;;;;;;-144.99;100.00;67352.69;5052106;28;19912;-80
2024/01/26 07:05:09;;;;;;;;;;;;;;;-144.99;100.00;67352.69;5052931;28;19920;-80
2024/01/26 07:07:36;;;;;;;;;;;;;;;-144.99;100.00;67352.69;5053335;28;22458;-80
2024/01/26 07:10:01;;;;;;;;;;;;;;;-144.99;100.00;67352.69;5052003;28;20372;-80
2024/01/26 07:12:26;;;;;;;;;;;;;;;-144.99;100.00;67352.69;5053613;28;19913;-80
2024/01/26 07:14:52;;;;;;;;;;;;;;;-144.99;100.00;67352.69;5052469;28;20399;-80
2024/01/26 07:17:17;;;;;;;;;;;;;;;-144.99;100.00;67352.69;5052160;28;19913;-80
2024/01/26 07:19:42;;;;;;;;;;;;;;;-144.99;100.00;67352.69;5051712;28;19919;-80
2024/01/26 07:22:07;;;;;;;;;;;;;;;-144.99;100.00;67352.69;5053138;28;20639;-80
2024/01/26 07:24:32;;;;;;;;;;;;;;;-144.99;100.00;67352.69;5050978;28;19913;-79
2024/01/26 07:26:58;;;;;;;;;;;;;;;-144.99;100.00;67352.69;5051930;28;19939;-80
2024/01/26 07:29:23;;;;;;;;;;;;;;;-144.99;100.00;67352.69;5053096;28;19917;-80
2024/01/26 07:31:49;;;;;;;;;;;;;;;-144.99;100.00;67352.69;5051481;28;20009;-80
2024/01/26 07:34:15;;;;;;;;;;;;;;;-144.99;100.00;67352.69;5050729;28;20548;-80
2024/01/26 07:36:40;;;;;;;;;;;;;;;-144.99;100.00;67352.69;5053131;28;19919;-80
2024/01/26 07:39:05;;;;;;;;;;;;;;;-144.99;100.00;67352.69;5053048;28;19917;-80
2024/01/26 07:41:31;;;;;;;;;;;;;;;-144.99;100.00;67352.69;5052943;28;19917;-80
2024/01/26 07:43:56;;;;;;;;;;;;;;;-144.99;100.00;67352.69;5051512;28;19923;-79
2024/01/26 07:46:21;;;;;;;;;;;;;;;-144.99;100.00;67352.69;5052597;28;19917;-80
2024/01/26 07:48:46;;;;;;;;;;;;;;;-144.99;100.00;67352.69;5048179;28;19959;-80
2024/01/26 07:51:11;;;;;;;;;;;;;;;-144.99;100.00;67352.69;5045959;28;19920;-79
2024/01/26 07:53:37;;;;;;;;;;;;;;;-144.99;100.00;67352.69;5051626;28;19943;-83
2024/01/26 07:56:02;;;;;;;;;;;;;;;-144.99;100.00;67352.69;5052637;28;20337;-82
2024/01/26 07:58:27;;;;;;;;;;;;;;;-144.99;100.00;67352.69;5051728;28;20327;-81
2024/01/26 08:00:53;;;;;;;;;;;;;;;-144.99;100.00;67352.69;5051456;28;20326;-81
2024/01/26 08:03:18;;;;;;;;;;;;;;;-144.99;100.00;67352.69;5050853;28;19913;-81
2024/01/26 08:05:43;;;;;;;;;;;;;;;-144.99;100.00;67352.69;5048867;28;19916;-82
2024/01/26 08:08:08;;;;;;;;;;;;;;;-144.99;100.00;67352.69;5052331;28;19919;-83
2024/01/26 08:10:34;;;;;;;;;;;;;;;-144.99;100.00;67352.69;5050688;28;19913;-82
2024/01/26 08:12:59;;;;;;;;;;;;;;;-144.99;100.00;67352.69;5051894;28;19913;-82
2024/01/26 08:15:25;;;;;;;;;;;;;;;-144.99;100.00;67352.69;5049565;28;20351;-80
2024/01/26 08:17:50;;;;;;;;;;;;;;;-144.99;100.00;67352.69;5051800;28;19995;-80
2024/01/26 08:20:15;;;;;;;;;;;;;;;-144.99;100.00;67352.69;5051589;28;19968;-79
2024/01/26 08:22:41;;;;;;;;;;;;;;;-144.99;100.00;67352.69;5051935;28;19913;-79
2024/01/26 08:25:06;;;;;;;;;;;;;;;-144.99;100.00;67352.69;5050021;28;20023;-80
2024/01/26 08:27:31;;;;;;;;;;;;;;;-144.99;100.00;67352.69;5051383;28;19924;-80
2024/01/26 08:29:57;;;;;;;;;;;;;;;-144.99;100.00;67352.69;5050977;28;19932;-80
2024/01/26 08:32:22;;;;;;;;;;;;;;;-144.99;100.00;67352.69;5052308;28;20482;-80
2024/01/26 08:34:47;;;;;;;;;;;;;;;-144.99;100.00;67352.69;5050266;28;19920;-79
2024/01/26 08:37:13;;;;;;;;;;;;;;;-144.99;100.00;67352.69;5051208;28;19920;-80
2024/01/26 08:39:38;;;;;;;;;;;;;;;-144.99;100.00;67352.69;5045580;28;19924;-82
2024/01/26 08:42:04;;;;;;;;;;;;;;;-144.99;100.00;67352.69;5047440;28;19916;-79
2024/01/26 08:44:32;;;;;;;;;;;;;;;-144.99;100.00;67352.69;5055093;28;19913;-80
2024/01/26 08:46:57;;;;;;;;;;;;;;;-144.99;100.00;67352.69;5054784;28;19956;-80
2024/01/26 08:49:23;;;;;;;;;;;;;;;-144.99;100.00;67352.69;5055972;28;19920;-80
2024/01/26 08:51:48;;;;;;;;;;;;;;;-144.99;100.00;67352.69;5054641;28;20450;-79
2024/01/26 08:54:13;;;;;;;;;;;;;;;-144.99;100.00;67352.69;5048674;28;19917;-80
2024/01/26 08:56:42;;;;;;;;;;;;;;;-144.99;100.00;67352.69;5053161;28;19913;-80
2024/01/26 08:59:08;;;;;;;;;;;;;;;-144.99;100.00;67352.69;5056208;28;19920;-80
2024/01/26 09:01:34;;;;;;;;;;;;;;;-144.99;100.00;67352.69;5056684;28;19912;-80
2024/01/26 09:04:00;;;;;;;;;;;;;;;-144.99;100.00;67352.69;5056045;28;19919;-80
2024/01/26 09:06:25;;;;;;;;;;;;;;;-144.99;100.00;67352.69;5056822;28;20007;-79
2024/01/26 09:08:50;;;;;;;;;;;;;;;-144.99;100.00;67352.69;5056371;28;19920;-80
2024/01/26 09:11:15;;;;;;;;;;;;;;;-144.99;100.00;67352.69;5056485;28;19924;-80
2024/01/26 09:13:41;;;;;;;;;;;;;;;-144.99;100.00;67352.69;5055962;28;19912;-80
2024/01/26 09:16:09;;;;;;;;;;;;;;;-144.99;100.00;67352.69;5055922;28;19913;-80
2024/01/26 09:18:34;;;;;;;;;;;;;;;-144.99;100.00;67352.69;5056644;28;19924;-80
2024/01/26 09:21:00;;;;;;;;;;;;;;;-144.99;100.00;67352.69;5056271;28;19913;-80
2024/01/26 09:23:28;;;;;;;;;;;;;;;-144.99;100.00;67352.69;5056454;28;19923;-78
2024/01/26 09:25:53;;;;;;;;;;;;;;;-144.99;100.00;67352.69;5055074;28;19924;-79
2024/01/26 09:28:18;;;;;;;;;;;;;;;-144.99;100.00;67352.69;5056104;28;19916;-80
2024/01/26 09:30:43;;;;;;;;;;;;;;;-144.99;100.00;67352.69;5054743;28;20392;-80
2024/01/26 09:33:08;;;;;;;;;;;;;;;-144.99;100.00;67352.69;5056292;28;19913;-79
2024/01/26 09:35:34;;;;;;;;;;;;;;;-144.99;100.00;67352.69;5053935;28;19920;-79
2024/01/26 09:37:59;;;;;;;;;;;;;;;-144.99;100.00;67352.69;5056281;28;19951;-79
2024/01/26 09:40:25;;;;;;;;;;;;;;;-144.99;100.00;67352.69;5054539;28;20408;-80
2024/01/26 09:42:50;;;;;;;;;;;;;;;-144.99;100.00;67352.69;5056160;28;19920;-78
2024/01/26 09:45:15;;;;;;;;;;;;;;;-144.99;100.00;67352.69;5055429;28;19959;-80
2024/01/26 09:47:44;;;;;;;;;;;;;;;-144.99;100.00;67352.69;5056417;28;19917;-80
2024/01/26 09:50:11;;;;;;;;;;;;;;;-144.99;100.00;67352.69;5054777;28;19913;-80
2024/01/26 09:52:37;;;;;;;;;;;;;;;-144.99;100.00;67352.69;5054713;28;19923;-79
2024/01/26 09:55:03;;;;;;;;;;;;;;;-144.99;100.00;67352.69;5053595;28;19917;-79
2024/01/26 09:57:30;;;;;;;;;;;;;;;-144.99;100.00;67352.69;5055179;28;19999;-79
2024/01/26 09:59:55;;;;;;;;;;;;;;;-144.99;100.00;67352.69;5056476;28;19921;-79
2024/01/26 10:02:25;;;;;;;;;;;;;;;-144.99;100.00;67352.69;5055569;28;19966;-79
2024/01/26 10:04:50;;;;;;;;;;;;;;;-144.99;100.00;67352.69;5055411;28;19919;-78
2024/01/26 10:07:16;;;;;;;;;;;;;;;-144.99;100.00;67352.69;5055619;28;20015;-79
2024/01/26 10:09:44;;;;;;;;;;;;;;;-144.99;100.00;67352.69;5053582;28;19916;-79
2024/01/26 10:12:12;;;;;;;;;;;;;;;-144.99;100.00;67352.69;5052371;28;20012;-79
2024/01/26 10:14:40;;;;;;;;;;;;;;;-144.99;100.00;67352.69;5052797;28;19913;-79
2024/01/26 10:17:05;;;;;;;;;;;;;;;-144.99;100.00;67352.69;5053689;28;19924;-79
2024/01/26 10:19:31;;;;;;;;;;;;;;;-144.99;100.00;67352.69;5052595;28;19913;-79
2024/01/26 10:21:56;;;;;;;;;;;;;;;-144.99;100.00;67352.69;5052733;28;19917;-79
2024/01/26 10:24:23;;;;;;;;;;;;;;;-144.99;100.00;67352.69;5053162;28;20003;-79
2024/01/26 10:26:48;;;;;;;;;;;;;;;-144.99;100.00;67352.69;5054210;28;20299;-79
2024/01/26 10:29:14;;;;;;;;;;;;;;;-144.99;100.00;67352.69;5052597;28;19916;-81
2024/01/26 10:31:42;;;;;;;;;;;;;;;-144.99;100.00;67352.69;5052867;28;20348;-80
2024/01/26 10:34:14;;;;;;;;;;;;;;;-144.99;100.00;67352.69;5052086;28;20007;-81
2024/01/26 10:36:44;;;;;;;;;;;;;;;-144.99;100.00;67352.69;5054473;28;19917;-80
2024/01/26 10:39:13;;;;;;;;;;;;;;;-144.99;100.00;67352.69;5054232;28;19955;-80
2024/01/26 10:41:41;;;;;;;;;;;;;;;-144.99;100.00;67352.69;5053093;28;19935;-81
2024/01/26 10:44:07;;;;;;;;;;;;;;;-144.99;100.00;67352.69;5053692;28;20478;-79
2024/01/26 10:46:34;;;;;;;;;;;;;;;-144.99;100.00;67352.69;5053165;28;19956;-78
2024/01/26 10:49:00;;;;;;;;;;;;;;;-144.99;100.00;67352.69;5052767;28;20290;-82
2024/01/26 10:51:26;;;;;;;;;;;;;;;-144.99;100.00;67352.69;5053503;28;19999;-82
2024/01/26 10:53:52;;;;;;;;;;;;;;;-144.99;100.00;67352.69;5053850;28;19955;-79
2024/01/26 10:56:17;;;;;;;;;;;;;;;-144.99;100.00;67352.69;5053685;28;19913;-79
2024/01/26 10:58:43;;;;;;;;;;;;;;;-144.99;100.00;67352.69;5054459;28;20431;-80
2024/01/26 11:01:08;;;;;;;;;;;;;;;-144.99;100.00;67352.69;5052634;28;19916;-80
2024/01/26 11:03:33;;;;;;;;;;;;;;;-144.99;100.00;67352.69;5054140;28;19958;-80
2024/01/26 11:05:58;;;;;;;;;;;;;;;-144.99;100.00;67352.69;5053821;28;19917;-79
2024/01/26 11:08:25;;;;;;;;;;;;;;;-144.99;100.00;67352.69;5054506;28;19913;-80
2024/01/26 11:10:51;;;;;;;;;;;;;;;-144.99;100.00;67352.69;5053440;28;19913;-80
2024/01/26 11:13:16;;;;;;;;;;;;;;;-144.99;100.00;67352.69;5053504;28;19917;-80
2024/01/26 11:15:43;;;;;;;;;;;;;;;-144.99;100.00;67352.69;5052688;28;19923;-79
2024/01/26 11:18:21;;;;;;;;;;;;;;;-144.99;100.00;67352.69;5053749;28;19962;-80
2024/01/26 11:20:48;;;;;;;;;;;;;;;-144.99;100.00;67352.69;5054408;28;19924;-80
2024/01/26 11:23:15;;;;;;;;;;;;;;;-144.99;100.00;67352.69;5054505;28;19936;-80
2024/01/26 11:25:41;;;;;;;;;;;;;;;-144.99;100.00;67352.69;5052425;28;19924;-79
2024/01/26 11:28:07;;;;;;;;;;;;;;;-144.99;100.00;67352.69;5054766;28;19955;-79
2024/01/26 11:30:32;;;;;;;;;;;;;;;-144.99;100.00;67352.69;5054456;28;20008;-80
2024/01/26 11:32:58;;;;;;;;;;;;;;;-144.99;100.00;67352.69;5054603;28;19948;-80
2024/01/26 11:35:24;;;;;;;;;;;;;;;-144.99;100.00;67352.69;5052631;28;19912;-78
2024/01/26 11:37:53;;;;;;;;;;;;;;;-144.99;100.00;67352.69;5051587;28;20268;-80
2024/01/26 11:40:23;;;;;;;;;;;;;;;-144.99;100.00;67352.69;5047720;28;19913;-80
2024/01/26 11:42:49;;;;;;;;;;;;;;;-144.99;100.00;67352.69;5053044;28;19997;-79
2024/01/26 11:45:26;;;;;;;;;;;;;;;-144.99;100.00;67352.69;5052686;28;19912;-80
2024/01/26 11:47:52;;;;;;;;;;;;;;;-144.99;100.00;67352.69;5052389;28;19916;-80
2024/01/26 11:50:18;;;;;;;;;;;;;;;-144.99;100.00;67352.69;5051752;28;20018;-80
2024/01/26 11:52:44;;;;;;;;;;;;;;;-144.99;100.00;67352.69;5053534;28;20379;-79
2024/01/26 11:55:12;;;;;;;;;;;;;;;-144.99;100.00;67352.69;5051816;28;19923;-80
2024/01/26 11:57:37;;;;;;;;;;;;;;;-144.99;100.00;67352.69;5052639;28;20271;-80
2024/01/26 12:00:05;;;;;;;;;;;;;;;-144.99;100.00;67352.69;5052564;28;19978;-79
2024/01/26 12:02:30;;;;;;;;;;;;;;;-144.99;100.00;67352.69;5054041;28;19912;-79
2024/01/26 12:04:56;;;;;;;;;;;;;;;-144.99;100.00;67352.69;5050880;28;20337;-79
2024/01/26 12:07:22;;;;;;;;;;;;;;;-144.99;100.00;67352.69;5051793;28;19917;-79
2024/01/26 12:09:47;;;;;;;;;;;;;;;-144.99;100.00;67352.69;5051931;28;20383;-80